Airfield :
LOGIN :

Register | Disclaimer

   EN    FR    IT 

 










Legend :    VFR   Marginal VFR   IFR   Intensive IFR   Very Intensive IFR
Visi :
Ceiling :
>= 8 km
>= 3000ft
5 to 8 km
1000 to 3000 ft
1500m to 5 km
500 to 1000 ft
800 to 1500m
200 to 500 ft
< 800m
< 200 ft
Symbols :   Thunderstorms  Fog  Heavy snow  Heavy precipitations  Wind > 20 kt
SIGMETs :     Misc.  Thunderstorms  Icing  Turbulence  Mountain Waves  Volcanic Ashes







- Airport Elevation : 65 ft
- IATA code : ADA


LTAF - Adana

CURRENT METAR :
  • 252120Z 00000KT CAVOK 26/25 Q1009 NOSIG RMK RWY23 24002KT

EXPIRED METARs :
  • 252050Z 00000KT CAVOK 26/25 Q1009 NOSIG RMK RWY23 VRB02KT
  • 252020Z 14003KT CAVOK 26/25 Q1009 NOSIG RMK RWY23 18005KT
  • 251950Z 14004KT CAVOK 27/25 Q1009 NOSIG RMK RWY23 17004KT
  • 251920Z 13002KT CAVOK 27/25 Q1008 NOSIG RMK RWY23 18003KT
  • 251850Z 14003KT CAVOK 27/25 Q1008 NOSIG RMK RWY23 18004KT 150V220
  • 251820Z 16003KT 120V190 CAVOK 28/24 Q1008 NOSIG

TAF TAF LTAF
Valid from the 25 at 18:00 until the 26 at 18:00 UTC


251640Z 2518/2618 VRB02KT CAVOK
BECMG 2600/2603 4000 BR SCT030
PROB40
TEMPO 2602/2605 1200
BECMG 2606/2609 21012KT CAVOK
No reported NOTAMs for that airfield.



MET'MAP, your aeronautical weather chart ! - Copyright ORBIFLY December 2007 - Disclaimer

ORBIFLY MET'MAP TEAM :

Programming & Development : Alexandra Zaïnal
Concept & Development : Baudouin d'Aumeries
Co-Development & Prog : Marc-Olivier Méhu
Technical & hardware support : Manuel Goepfert

Contact : metmap@orbifly.com




SOURCES & CREDITS :

   NOAA